• Join FlightAware (Why Join?)
  • Login
  • US Flag 
08:54AM EST


 

Airport Tracker/Info


-or-


 

Live Flight TrackerFlight Track Log ✈ EJA929 ✈ 12-Oct-2013 ✈ KVNY - KLAS

Flight Track Log - Related Links

Times and Time Zones

All times are in EDT time to prevent confusion due to time zone crossing. See the EJA929 flight status page for this flight to view local times or setup timezone preferences in your user account.

Time Position Orientation Groundspeed Altitude Reporting Facility
EDT Latitude Longitude Course Direction KTS MPH feet Rate Location/Type
11:47AM 34.1739 -118.4803 93° East 200 230 2,000  Level Los Angeles Center
11:48AM 34.1714 -118.4242 93° East 228 262 3,500 2,160 Climbing Los Angeles Center
11:49AM 34.2233 -118.4567 333° Northwest 220 253 6,500 2,640 Climbing Los Angeles Center
11:50AM 34.2650 -118.4914 325° Northwest 224 258 9,000 2,100 Climbing Los Angeles Center
11:51AM 34.3469 -118.4361 29° Northeast 302 348 10,900 1,920 Climbing Los Angeles Center
11:52AM 34.4419 -118.3508 37° Northeast 352 405 13,000 1,800 Climbing Los Angeles Center
11:53AM 34.5117 -118.2564 48° Northeast 373 429 14,700 1,620 Climbing Los Angeles Center
11:54AM 34.5778 -118.1500 53° Northeast 392 451 16,400 1,560 Climbing Los Angeles Center
11:55AM 34.6328 -118.0425 58° Northeast 394 453 18,000 1,680 Climbing Los Angeles Center
11:56AM 34.6506 -117.8892 82° East 403 464 19,900 1,680 Climbing Los Angeles Center
11:57AM 34.6669 -117.7528 82° East 411 473 21,500 1,440 Climbing Los Angeles Center
11:58AM 34.7014 -117.6147 73° East 429 494 22,900 1,140 Climbing Los Angeles Center
11:59AM 34.7375 -117.4714 73° East 446 513 24,100 900 Climbing Los Angeles Center
12:00PM 34.7833 -117.2900 73° East 471 542 25,000 420 Climbing Los Angeles Center
12:01PM 34.8386 -117.0978 71° East 507 583 25,000 -60 Level Los Angeles Center
12:02PM 34.8981 -116.9442 65° Northeast 506 582 24,900 -480 Descending Los Angeles Center
12:03PM 34.9569 -116.7872 65° Northeast 511 588 24,100 -480 Descending Los Angeles Center
12:04PM 35.0036 -116.6628 65° Northeast 507 583 24,000 -60 Descending Los Angeles Center
12:05PM 35.0719 -116.4831 65° Northeast 494 568 24,000  Level Los Angeles Center
12:06PM 35.1400 -116.3525 57° Northeast 470 541 24,000 -1,320 Level Los Angeles Center
12:07PM 35.2472 -116.2172 46° Northeast 461 531 21,400 -2,160 Descending Los Angeles Center
12:09PM 35.3364 -116.1058 46° Northeast 459 528 19,600 -1,680 Descending Los Angeles Center
12:10PM 35.4200 -116.0014 45° Northeast 430 495 18,000 -1,500 Descending Los Angeles Center
12:10PM 35.4561 -115.9589 44° Northeast 421 484 17,400 -1,380 Descending Los Angeles Center
12:11PM 35.4906 -115.9103 49° Northeast 388 447 16,600 -1,680 Descending Los Angeles Center
12:11PM 35.5036 -115.8989 35° Northeast 364 419 16,400 -1,380 Descending Los Angeles Center
12:12PM 35.5689 -115.8203 44° Northeast 332 382 15,200 -1,320 Descending Los Angeles Center
12:13PM 35.6344 -115.7331 47° Northeast 352 405 13,800 -1,080 Descending Los Angeles Center
12:14PM 35.7039 -115.6447 46° Northeast 355 409 13,100 -720 Descending Los Angeles Center
12:14PM 35.7025 -115.6422 124° Southeast 357 411 13,100 -120 Level Los Angeles Center
12:15PM 35.7797 -115.5753 35° Northeast 348 400 13,000  Descending Los Angeles Center
12:15PM 35.7872 -115.5722 18° North 350 403 13,100  Climbing Los Angeles Center
12:16PM 35.8822 -115.5647 North 345 397 13,000 -60 Descending Los Angeles Center
12:17PM 35.9517 -115.5011 37° Northeast 328 377 13,000 60 Level Los Angeles Center
12:17PM 35.9478 -115.5069 231° Southwest 324 373 13,100 -1,200 Climbing Los Angeles Center
12:18PM 36.0078 -115.4114 52° Northeast 325 374 11,800 -1,500 Descending Los Angeles Center
12:18PM 36.0119 -115.4019 61° Northeast 322 371 11,600 -1,620 Descending Los Angeles Center
12:19PM 36.0269 -115.3200 77° East 284 327 10,200 -1,500 Descending Los Angeles Center
12:19PM 36.0256 -115.3075 98° East 297 342 10,100 -840 Descending Los Angeles Center
12:20PM 36.0189 -115.2244 96° East 258 297 9,300 -780 Descending Los Angeles Center
12:21PM 36.0144 -115.1447 94° East 238 274 8,600 -780 Descending Los Angeles Center
12:22PM 36.0111 -115.0781 94° East 192 221 7,900 -720 Descending Los Angeles Center
12:22PM 36.0108 -115.0744 95° East 216 249 7,900 -1,200 Level Los Angeles Center
12:23PM 36.0517 -115.0564 20° North 192 221 6,800 -1,260 Descending Los Angeles Center
12:23PM 36.0575 -115.0514 35° Northeast 202 232 6,600 -720 Descending Los Angeles Center
12:24PM 36.1186 -115.0364 11° North 189 217 5,900 -1,020 Descending Los Angeles Center
12:25PM 36.1406 -115.0878 298° West 177 204 4,600 -1,380 Descending Los Angeles Center
12:26PM 36.1328 -115.1308 257° West 147 169 3,400 -1,380 Descending Los Angeles Center
12:26PM 36.1303 -115.1339 225° Southwest 153 176 3,200 -1,200 Descending Los Angeles Center
12:27PM 36.0992 -115.1553 209° Southwest 135 155 2,200 -900 Descending Los Angeles Center
12:27PM 36.0919 -115.1572 192° South 150 173 2,300 360 Climbing Los Angeles Center
12:29PM 36.0801 -115.1523 95° East  Level Estimated
12:36PM 36.0801 -115.1523 270° West  Level Estimated